createdAt,value
2022-11-29T00:00:52.543Z,19.27
2022-11-29T00:03:40.049Z,19.50
2022-11-29T00:06:22.054Z,17.80
2022-11-29T00:09:10.045Z,19.15
2022-11-29T00:12:09.034Z,19.55
2022-11-29T00:14:50.143Z,18.45
2022-11-29T00:17:30.050Z,17.55
2022-11-29T00:20:18.056Z,18.40
2022-11-29T00:22:58.053Z,18.67
2022-11-29T00:25:39.133Z,17.08
2022-11-29T00:28:19.044Z,18.52
2022-11-29T00:31:00.316Z,16.85
2022-11-29T00:33:41.070Z,17.88
2022-11-29T00:36:22.102Z,19.00
2022-11-29T00:39:04.069Z,18.15
2022-11-29T00:41:52.058Z,18.70
2022-11-29T00:44:32.024Z,16.23
2022-11-29T00:47:13.114Z,19.52
2022-11-29T00:49:53.058Z,19.38
2022-11-29T00:52:41.040Z,17.98
2022-11-29T00:55:22.038Z,17.08
2022-11-29T00:58:03.137Z,17.90
2022-11-29T01:00:43.052Z,17.70
2022-11-29T01:03:24.102Z,17.00
2022-11-29T01:06:08.042Z,16.65
2022-11-29T01:08:56.055Z,15.90
2022-11-29T01:11:30.071Z,15.73
2022-11-29T01:14:18.048Z,15.55
2022-11-29T01:16:58.107Z,15.90
2022-11-29T01:19:39.197Z,16.27
2022-11-29T01:22:20.044Z,15.55
2022-11-29T01:25:08.049Z,15.65
2022-11-29T01:27:49.050Z,15.90
2022-11-29T01:30:37.098Z,14.55
2022-11-29T01:33:17.073Z,15.50
2022-11-29T01:35:59.118Z,15.10
2022-11-29T01:38:39.073Z,14.15
2022-11-29T01:41:30.055Z,14.35
2022-11-29T01:44:27.083Z,14.50
2022-11-29T01:47:14.053Z,12.35
2022-11-29T01:49:49.735Z,13.30
2022-11-29T01:52:39.074Z,13.88
2022-11-29T01:55:33.089Z,13.18
2022-11-29T01:58:22.089Z,13.82
2022-11-29T02:01:04.205Z,13.77
2022-11-29T02:03:45.066Z,14.00
2022-11-29T02:06:33.063Z,13.65
2022-11-29T02:09:17.110Z,12.43
2022-11-29T02:12:08.055Z,14.05
2022-11-29T02:15:13.047Z,13.77
2022-11-29T02:18:20.121Z,14.25
2022-11-29T02:21:31.047Z,13.65
2022-11-29T02:24:05.157Z,11.68
2022-11-29T02:27:11.053Z,11.93
2022-11-29T02:29:57.132Z,12.65
2022-11-29T02:33:06.068Z,13.35
2022-11-29T02:35:59.176Z,13.65
2022-11-29T02:38:55.060Z,11.73
2022-11-29T02:41:44.099Z,12.07
2022-11-29T02:44:38.055Z,13.23
2022-11-29T02:47:49.163Z,11.57
2022-11-29T02:50:44.065Z,10.73
2022-11-29T02:53:25.051Z,11.85
2022-11-29T02:56:16.108Z,11.55
2022-11-29T02:59:07.055Z,12.38
2022-11-29T03:01:47.625Z,11.15
2022-11-29T03:04:41.056Z,11.48
2022-11-29T03:07:40.133Z,11.80
2022-11-29T03:10:21.147Z,10.00
2022-11-29T03:13:02.045Z,11.88
2022-11-29T03:15:51.140Z,10.25
2022-11-29T03:18:42.065Z,10.80
2022-11-29T03:21:39.083Z,11.35
2022-11-29T03:24:29.054Z,11.35
2022-11-29T03:30:00.075Z,10.45
2022-11-29T03:32:34.138Z,12.38
2022-11-29T03:35:31.068Z,11.98
2022-11-29T03:38:10.169Z,11.88
2022-11-29T03:41:03.059Z,12.00
2022-11-29T03:44:06.146Z,12.38
2022-11-29T03:47:02.068Z,10.93
2022-11-29T03:49:39.135Z,10.35
2022-11-29T03:55:03.095Z,10.20
2022-11-29T03:57:56.056Z,11.20
2022-11-29T04:01:03.066Z,11.40
2022-11-29T04:03:56.063Z,13.10
2022-11-29T04:07:07.161Z,10.32
2022-11-29T04:09:54.253Z,10.55
2022-11-29T04:12:53.134Z,12.25
2022-11-29T04:15:52.088Z,11.65
2022-11-29T04:18:51.140Z,12.15
2022-11-29T04:21:41.075Z,11.35
2022-11-29T04:24:41.145Z,10.48
2022-11-29T04:27:30.251Z,11.73
2022-11-29T04:30:24.146Z,11.10
2022-11-29T04:33:38.078Z,11.50
2022-11-29T04:36:19.194Z,10.57
2022-11-29T04:39:24.078Z,11.27
2022-11-29T04:42:16.153Z,11.27
2022-11-29T04:45:04.055Z,11.88
2022-11-29T04:48:04.184Z,11.30
2022-11-29T04:51:01.070Z,11.55
2022-11-29T04:53:48.165Z,12.00
2022-11-29T04:57:10.069Z,13.70
2022-11-29T05:00:07.079Z,9.35
2022-11-29T05:02:50.319Z,10.43
2022-11-29T05:05:47.092Z,11.75
2022-11-29T05:08:26.926Z,11.88
2022-11-29T05:11:34.048Z,11.63
2022-11-29T05:14:20.664Z,12.50
2022-11-29T05:17:15.075Z,11.80
2022-11-29T05:19:52.042Z,10.63
2022-11-29T05:22:40.064Z,12.05
2022-11-29T05:25:33.078Z,12.05
2022-11-29T05:28:27.074Z,12.57
2022-11-29T05:31:16.142Z,11.75
2022-11-29T05:34:00.191Z,10.55
2022-11-29T05:36:46.067Z,11.95
2022-11-29T05:39:45.142Z,10.17
2022-11-29T05:42:32.072Z,11.55
2022-11-29T05:45:08.137Z,11.63
2022-11-29T05:47:59.084Z,11.75
2022-11-29T05:50:40.127Z,11.82
2022-11-29T05:53:29.068Z,13.70
2022-11-29T05:56:12.151Z,10.82
2022-11-29T05:59:14.096Z,11.48
2022-11-29T06:01:55.264Z,12.18
2022-11-29T06:04:54.079Z,11.90
2022-11-29T06:07:54.196Z,12.15
2022-11-29T06:10:44.088Z,12.07
2022-11-29T06:13:34.161Z,11.25
2022-11-29T06:16:21.185Z,11.70
2022-11-29T06:19:02.139Z,10.98
2022-11-29T06:22:01.069Z,14.88
2022-11-29T06:24:56.528Z,11.95
2022-11-29T06:28:06.071Z,12.70
2022-11-29T06:31:01.165Z,10.95
2022-11-29T06:34:00.070Z,11.50
2022-11-29T06:36:54.157Z,12.13
2022-11-29T06:39:35.103Z,11.68
2022-11-29T06:42:23.070Z,12.82
2022-11-29T06:44:57.119Z,11.60
2022-11-29T06:47:49.075Z,12.80
2022-11-29T06:50:23.017Z,11.27
2022-11-29T06:53:17.079Z,11.88
2022-11-29T06:55:57.103Z,10.85
2022-11-29T06:58:38.157Z,13.20
2022-11-29T07:01:44.092Z,11.63
2022-11-29T07:04:21.211Z,11.07
2022-11-29T07:07:09.070Z,12.15
2022-11-29T07:09:43.155Z,12.38
2022-11-29T07:12:31.096Z,10.45
2022-11-29T07:15:05.134Z,11.65
2022-11-29T07:18:11.110Z,12.40
2022-11-29T07:21:04.144Z,10.68
2022-11-29T07:24:04.091Z,11.45
2022-11-29T07:26:52.868Z,12.02
2022-11-29T07:29:42.113Z,12.32
2022-11-29T07:32:37.225Z,12.20
2022-11-29T07:35:29.108Z,12.27
2022-11-29T07:38:22.161Z,12.27
2022-11-29T07:41:27.090Z,11.32
2022-11-29T07:44:19.148Z,10.90
2022-11-29T07:47:07.114Z,12.15
2022-11-29T07:49:41.214Z,12.55
2022-11-29T07:52:29.117Z,11.38
2022-11-29T07:55:03.327Z,12.18
2022-11-29T07:57:51.112Z,12.07
2022-11-29T08:00:32.195Z,12.43
2022-11-29T08:03:13.087Z,11.40
2022-11-29T08:05:55.146Z,12.07
2022-11-29T08:08:37.840Z,12.07
2022-11-29T08:11:23.271Z,12.38
2022-11-29T08:14:07.111Z,11.20
2022-11-29T08:16:48.317Z,12.27
2022-11-29T08:19:29.081Z,12.65
2022-11-29T08:22:17.143Z,12.13
2022-11-29T08:24:51.034Z,12.18
2022-11-29T08:27:39.107Z,12.55
2022-11-29T08:30:13.163Z,10.80
2022-11-29T08:33:01.109Z,11.82
2022-11-29T08:35:35.931Z,11.93
2022-11-29T08:38:24.084Z,12.45
2022-11-29T08:41:02.312Z,13.18
2022-11-29T08:43:50.115Z,11.63
2022-11-29T08:46:50.142Z,12.13
2022-11-29T08:49:31.238Z,13.55
2022-11-29T08:52:30.096Z,12.68
2022-11-29T08:55:11.182Z,13.27
2022-11-29T08:57:51.082Z,17.27
2022-11-29T09:00:32.277Z,16.27
2022-11-29T09:03:38.112Z,16.05
2022-11-29T09:06:14.219Z,18.98
2022-11-29T09:09:03.126Z,17.60
2022-11-29T09:11:49.228Z,17.45
2022-11-29T09:14:43.252Z,17.98
2022-11-29T09:17:37.075Z,18.17
2022-11-29T09:20:24.113Z,16.90
2022-11-29T09:23:05.097Z,16.25
2022-11-29T09:26:03.091Z,14.88
2022-11-29T09:28:50.160Z,15.95
2022-11-29T09:31:24.215Z,17.13
2022-11-29T09:34:11.104Z,15.73
2022-11-29T09:36:45.199Z,19.63
2022-11-29T09:39:33.089Z,21.27
2022-11-29T09:42:21.123Z,20.35
2022-11-29T09:45:15.117Z,21.98
2022-11-29T09:48:21.130Z,20.35
2022-11-29T09:51:04.165Z,17.70
2022-11-29T09:54:07.110Z,18.33
2022-11-29T09:56:46.179Z,18.73
2022-11-29T09:59:38.099Z,17.80
2022-11-29T10:02:21.588Z,18.17
2022-11-29T10:05:29.121Z,18.10
2022-11-29T10:11:35.122Z,17.65
2022-11-29T10:14:30.095Z,15.40
2022-11-29T10:17:21.095Z,18.60
2022-11-29T10:20:08.167Z,18.58
2022-11-29T10:22:48.101Z,17.58
2022-11-29T10:25:31.183Z,19.02
2022-11-29T10:28:12.114Z,18.55
2022-11-29T10:31:00.216Z,17.50
2022-11-29T10:33:49.105Z,17.95
2022-11-29T10:36:43.098Z,18.30
2022-11-29T10:39:33.167Z,18.60
2022-11-29T10:45:27.106Z,18.05
2022-11-29T10:48:09.162Z,17.35
2022-11-29T10:50:58.122Z,16.70
2022-11-29T10:53:39.199Z,17.02
2022-11-29T10:56:26.101Z,19.40
2022-11-29T10:59:14.148Z,20.27
2022-11-29T11:01:55.601Z,19.58
2022-11-29T11:04:48.410Z,20.85
2022-11-29T11:07:35.708Z,18.88
2022-11-29T11:10:36.125Z,20.77
2022-11-29T11:13:27.137Z,23.00
2022-11-29T11:16:23.169Z,20.15
2022-11-29T11:18:57.274Z,21.48
2022-11-29T11:21:45.105Z,21.85
2022-11-29T11:24:35.980Z,19.92
2022-11-29T11:27:24.095Z,17.63
2022-11-29T11:29:58.494Z,18.77
2022-11-29T11:32:46.162Z,18.88
2022-11-29T11:35:24.335Z,19.63
2022-11-29T11:38:12.134Z,20.63
2022-11-29T11:40:57.911Z,19.77
2022-11-29T11:43:40.545Z,19.98
2022-11-29T11:46:20.171Z,18.27
2022-11-29T11:49:01.194Z,18.13
2022-11-29T11:51:41.120Z,17.92
2022-11-29T11:54:29.106Z,17.55
2022-11-29T11:57:10.112Z,18.88
2022-11-29T12:00:06.764Z,22.00
2022-11-29T12:02:41.679Z,19.50
2022-11-29T12:05:31.120Z,18.80
2022-11-29T12:08:08.204Z,14.65
2022-11-29T12:10:56.125Z,18.33
2022-11-29T12:13:32.177Z,19.05
2022-11-29T12:16:24.139Z,20.73
2022-11-29T12:19:04.756Z,20.27
2022-11-29T12:21:59.148Z,18.95
2022-11-29T12:24:41.421Z,20.10
2022-11-29T12:27:29.117Z,20.40
2022-11-29T12:30:03.141Z,18.50
2022-11-29T12:33:30.104Z,19.77
2022-11-29T12:36:18.872Z,18.58
2022-11-29T12:39:17.103Z,21.13
2022-11-29T12:41:56.608Z,18.38
2022-11-29T12:44:53.093Z,22.80
2022-11-29T12:47:51.855Z,22.92
2022-11-29T12:50:59.178Z,21.20
2022-11-29T12:54:34.290Z,20.45
2022-11-29T12:57:32.106Z,21.85
2022-11-29T13:00:11.332Z,21.33
2022-11-29T13:03:03.183Z,20.83
2022-11-29T13:05:43.131Z,22.33
2022-11-29T13:08:43.183Z,21.10
2022-11-29T13:11:35.099Z,22.60
2022-11-29T13:14:42.277Z,22.15
2022-11-29T13:17:29.114Z,24.70
2022-11-29T13:23:01.120Z,23.70
2022-11-29T13:25:44.210Z,23.55
2022-11-29T13:28:25.142Z,19.05
2022-11-29T13:31:36.138Z,23.75
2022-11-29T13:34:34.123Z,21.67
2022-11-29T13:37:34.122Z,23.95
2022-11-29T13:40:15.130Z,21.92
2022-11-29T13:43:36.125Z,22.77
2022-11-29T13:46:42.210Z,22.98
2022-11-29T13:49:27.186Z,24.80
2022-11-29T13:52:15.115Z,26.63
2022-11-29T13:54:49.268Z,25.02
2022-11-29T13:58:00.715Z,21.08
2022-11-29T14:00:41.183Z,25.35
2022-11-29T14:03:32.144Z,24.17
2022-11-29T14:06:09.956Z,23.10
2022-11-29T14:09:18.416Z,24.73
2022-11-29T14:12:05.147Z,21.52
2022-11-29T14:15:06.114Z,23.48
2022-11-29T14:17:42.182Z,23.88
2022-11-29T14:20:29.124Z,18.13
2022-11-29T14:23:19.165Z,20.67
2022-11-29T14:26:13.144Z,22.25
2022-11-29T14:29:01.110Z,22.60
2022-11-29T14:31:54.315Z,19.80
2022-11-29T14:34:44.541Z,19.40
2022-11-29T14:37:43.146Z,21.17
2022-11-29T14:40:40.137Z,18.00
2022-11-29T14:43:51.107Z,21.52
2022-11-29T14:46:39.269Z,20.63
2022-11-29T14:49:20.116Z,19.17
2022-11-29T14:52:30.128Z,18.27
2022-11-29T14:55:24.123Z,19.33
2022-11-29T14:58:07.258Z,19.05
2022-11-29T15:00:54.166Z,21.23
2022-11-29T15:03:40.290Z,19.58
2022-11-29T15:06:36.954Z,16.35
2022-11-29T15:09:27.174Z,19.00
2022-11-29T15:12:10.152Z,18.98
2022-11-29T15:15:06.362Z,19.88
2022-11-29T15:17:53.132Z,20.63
2022-11-29T15:20:55.059Z,22.27
2022-11-29T15:23:35.145Z,17.33
2022-11-29T15:26:34.139Z,17.90
2022-11-29T15:29:26.146Z,18.10
2022-11-29T15:32:15.182Z,19.63
2022-11-29T15:34:50.870Z,17.60
2022-11-29T15:37:51.177Z,20.05
2022-11-29T15:40:33.046Z,24.33
2022-11-29T15:43:50.180Z,25.30
2022-11-29T15:46:28.052Z,20.92
2022-11-29T15:49:37.137Z,20.95
2022-11-29T15:52:20.327Z,19.83
2022-11-29T15:55:04.131Z,19.63
2022-11-29T15:57:48.153Z,22.67
2022-11-29T16:00:33.133Z,22.77
2022-11-29T16:03:15.225Z,21.08
2022-11-29T16:05:57.137Z,21.77
2022-11-29T16:08:41.802Z,18.27
2022-11-29T16:11:24.142Z,21.40
2022-11-29T16:14:10.201Z,22.23
2022-11-29T16:16:52.312Z,17.95
2022-11-29T16:19:37.073Z,19.17
2022-11-29T16:22:17.146Z,18.77
2022-11-29T16:25:14.205Z,22.13
2022-11-29T16:27:55.114Z,19.00
2022-11-29T16:30:38.191Z,18.15
2022-11-29T16:33:28.142Z,18.67
2022-11-29T16:36:32.211Z,17.27
2022-11-29T16:39:14.144Z,19.67
2022-11-29T16:42:09.231Z,19.83
2022-11-29T16:44:53.126Z,20.02
2022-11-29T16:47:38.873Z,22.42
2022-11-29T16:50:27.140Z,20.98
2022-11-29T16:53:51.711Z,20.17
2022-11-29T16:56:41.135Z,21.58
2022-11-29T16:59:26.851Z,21.45
2022-11-29T17:02:08.160Z,18.77
2022-11-29T17:04:49.341Z,22.05
2022-11-29T17:07:40.178Z,24.58
2022-11-29T17:10:30.147Z,21.77
2022-11-29T17:15:44.139Z,19.48
2022-11-29T17:18:25.127Z,20.83
2022-11-29T17:21:19.153Z,17.98
2022-11-29T17:24:06.141Z,20.38
2022-11-29T17:26:40.189Z,24.02
2022-11-29T17:29:28.151Z,20.92
2022-11-29T17:32:02.307Z,21.38
2022-11-29T17:34:49.162Z,22.23
2022-11-29T17:37:30.207Z,20.58
2022-11-29T17:40:11.151Z,24.33
2022-11-29T17:42:52.635Z,26.65
2022-11-29T17:45:34.234Z,24.65
2022-11-29T17:48:15.238Z,23.83
2022-11-29T17:50:55.146Z,26.42
2022-11-29T17:53:43.170Z,23.58
2022-11-29T17:56:21.720Z,22.58
2022-11-29T17:59:14.141Z,20.95
2022-11-29T18:01:48.249Z,21.05
2022-11-29T18:04:36.132Z,21.83
2022-11-29T18:07:10.163Z,19.48
2022-11-29T18:09:58.142Z,17.48
2022-11-29T18:12:32.061Z,20.02
2022-11-29T18:15:20.150Z,19.52
2022-11-29T18:17:54.235Z,20.67
2022-11-29T18:20:42.150Z,21.05
2022-11-29T18:23:22.217Z,22.10
2022-11-29T18:26:09.225Z,24.02
2022-11-29T18:28:57.130Z,25.23
2022-11-29T18:31:43.156Z,22.15
2022-11-29T18:34:37.156Z,18.80
2022-11-29T18:37:46.103Z,20.77
2022-11-29T18:40:25.162Z,19.73
2022-11-29T18:43:19.126Z,21.60
2022-11-29T18:46:12.196Z,19.05
2022-11-29T18:48:53.147Z,20.52
2022-11-29T18:51:49.120Z,18.20
2022-11-29T18:54:37.136Z,19.60
2022-11-29T18:57:11.194Z,20.67
2022-11-29T18:59:58.154Z,18.27
2022-11-29T19:02:39.195Z,19.80
2022-11-29T19:05:33.151Z,20.33
2022-11-29T19:08:20.154Z,16.25
2022-11-29T19:11:01.381Z,19.52
2022-11-29T19:13:42.143Z,20.08
2022-11-29T19:16:24.231Z,24.23
2022-11-29T19:19:06.143Z,23.70
2022-11-29T19:21:47.215Z,22.00
2022-11-29T19:24:28.179Z,21.30
2022-11-29T19:27:09.213Z,21.77
2022-11-29T19:29:49.332Z,20.20
2022-11-29T19:32:30.282Z,20.92
2022-11-29T19:35:17.171Z,21.23
2022-11-29T19:37:51.606Z,22.23
2022-11-29T19:40:38.145Z,16.88
2022-11-29T19:43:19.138Z,14.52
2022-11-29T19:46:13.161Z,15.65
2022-11-29T19:49:01.165Z,15.80
2022-11-29T19:51:36.233Z,18.25
2022-11-29T19:54:23.162Z,15.13
2022-11-29T19:57:05.214Z,16.85
2022-11-29T19:59:52.148Z,15.65
2022-11-29T20:02:33.213Z,17.35
2022-11-29T20:05:27.144Z,16.65
2022-11-29T20:08:19.838Z,14.95
2022-11-29T20:11:02.163Z,15.90
2022-11-29T20:13:57.120Z,13.98
2022-11-29T20:16:45.170Z,15.50
2022-11-29T20:19:21.229Z,14.57
2022-11-29T20:22:09.143Z,14.82
2022-11-29T20:24:45.512Z,13.82
2022-11-29T20:27:35.149Z,14.10
2022-11-29T20:30:17.175Z,13.68
2022-11-29T20:33:05.173Z,13.95
2022-11-29T20:35:46.143Z,14.32
2022-11-29T20:38:53.164Z,15.52
2022-11-29T20:42:17.139Z,15.38
2022-11-29T20:45:07.155Z,13.32
2022-11-29T20:48:01.135Z,15.25
2022-11-29T20:50:50.155Z,13.60
2022-11-29T20:53:35.240Z,14.75
2022-11-29T20:56:22.175Z,18.00
2022-11-29T20:58:56.803Z,15.90
2022-11-29T21:01:43.174Z,17.73
2022-11-29T21:04:24.159Z,14.00
2022-11-29T21:07:11.156Z,17.10
2022-11-29T21:09:45.226Z,17.00
2022-11-29T21:12:33.167Z,17.60
2022-11-29T21:15:14.271Z,15.82
2022-11-29T21:17:55.159Z,17.73
2022-11-29T21:20:36.228Z,17.80
2022-11-29T21:23:21.153Z,17.30
2022-11-29T21:26:12.165Z,18.65
2022-11-29T21:29:00.173Z,19.02
2022-11-29T21:31:41.230Z,16.90
2022-11-29T21:34:21.164Z,16.40
2022-11-29T21:37:05.408Z,16.98
2022-11-29T21:39:45.170Z,17.13
2022-11-29T21:42:33.163Z,17.25
2022-11-29T21:45:14.585Z,18.63
2022-11-29T21:48:03.198Z,17.75
2022-11-29T21:50:43.163Z,21.65
2022-11-29T21:53:24.241Z,19.02
2022-11-29T21:56:05.164Z,20.90
2022-11-29T21:58:53.151Z,20.58
2022-11-29T22:01:34.228Z,18.45
2022-11-29T22:04:15.215Z,19.75
2022-11-29T22:07:03.171Z,19.55
2022-11-29T22:09:44.211Z,19.73
2022-11-29T22:12:35.239Z,19.67
2022-11-29T22:15:24.189Z,18.27
2022-11-29T22:18:19.170Z,17.10
2022-11-29T22:21:17.149Z,17.20
2022-11-29T22:24:05.170Z,16.50
2022-11-29T22:26:46.163Z,16.52
2022-11-29T22:29:40.148Z,17.70
2022-11-29T22:32:27.338Z,16.50
2022-11-29T22:35:01.233Z,16.20
2022-11-29T22:37:48.145Z,15.45
2022-11-29T22:40:29.174Z,15.75
2022-11-29T22:43:23.177Z,14.95
2022-11-29T22:46:31.211Z,15.95
2022-11-29T22:49:06.279Z,17.08
2022-11-29T22:51:54.147Z,18.20
2022-11-29T22:54:35.180Z,17.83
2022-11-29T22:57:16.135Z,18.30
2022-11-29T23:00:04.164Z,17.05
2022-11-29T23:02:44.177Z,18.95
2022-11-29T23:05:29.443Z,21.05
2022-11-29T23:08:13.177Z,19.83
2022-11-29T23:11:12.157Z,19.10
2022-11-29T23:13:46.370Z,18.38
2022-11-29T23:16:36.183Z,18.92
2022-11-29T23:19:17.189Z,17.60
2022-11-29T23:22:05.154Z,17.02
2022-11-29T23:24:40.816Z,15.82
2022-11-29T23:27:28.166Z,16.75
2022-11-29T23:30:02.126Z,17.25
2022-11-29T23:32:50.204Z,18.50
2022-11-29T23:35:37.165Z,16.33
2022-11-29T23:38:18.263Z,15.68
2022-11-29T23:41:12.170Z,16.67
2022-11-29T23:43:59.163Z,17.13
2022-11-29T23:46:40.202Z,18.00
2022-11-29T23:49:34.155Z,19.08
2022-11-29T23:52:22.180Z,17.60
2022-11-29T23:55:03.203Z,18.70
2022-11-29T23:57:57.166Z,16.80
